Time;durP1;ratioP1;P1;durP2;ratioP2;P2;SDS_P1;SDS_P2;PMS_P1;PMS_P2;Temp;Humidity;BMP_temperature;BMP_pressure;BME280_temperature;BME280_humidity;BME280_pressure;Samples;Min_cycle;Max_cycle;Signal;HPM_P1;HPM_P2
2022/01/03 00:02:19;;;;;;;;;;;;;;;10.23;81.70;101175.28;5021689;28;19988;-83
2022/01/03 00:04:44;;;;;;;;;;;;;;;10.22;81.70;101170.03;5022820;28;20099;-84
2022/01/03 00:07:11;;;;;;;;;;;;;;;10.20;81.84;101171.72;5021865;28;19975;-84
2022/01/03 00:09:36;;;;;;;;;;;;;;;10.22;81.32;101177.84;5022412;28;19967;-85
2022/01/03 00:12:01;;;;;;;;;;;;;;;10.16;81.92;101175.94;5041613;28;19919;-85
2022/01/03 00:14:28;;;;;;;;;;;;;;;10.17;81.59;101176.84;5016811;28;19925;-84
2022/01/03 00:16:53;;;;;;;;;;;;;;;10.13;81.91;101170.63;5016794;28;19932;-84
2022/01/03 00:19:18;;;;;;;;;;;;;;;10.13;81.88;101187.97;5018026;28;19909;-84
2022/01/03 00:21:45;;;;;;;;;;;;;;;10.12;81.90;101181.88;5016013;28;19909;-85
2022/01/03 00:24:10;;;;;;;;;;;;;;;10.14;81.53;101185.44;5008656;28;19916;-84
2022/01/03 00:26:37;;;;;;;;;;;;;;;10.12;81.86;101194.88;5009392;28;19909;-84
2022/01/03 00:29:09;;;;;;;;;;;;;;;10.11;81.75;101187.94;5019658;28;19941;-84
2022/01/03 00:31:38;;;;;;;;;;;;;;;10.13;81.88;101191.47;5013668;28;20149;-84
2022/01/03 00:34:05;;;;;;;;;;;;;;;10.11;81.60;101187.94;5013602;28;20191;-84
2022/01/03 00:36:31;;;;;;;;;;;;;;;10.12;81.88;101187.09;5011493;28;19925;-84
2022/01/03 00:38:56;;;;;;;;;;;;;;;10.13;81.54;101188.84;5015733;28;19909;-83
2022/01/03 00:41:21;;;;;;;;;;;;;;;10.14;81.23;101188.03;5011262;28;19913;-83
2022/01/03 00:43:47;;;;;;;;;;;;;;;10.15;80.97;101196.72;5014022;28;20187;-84
2022/01/03 00:46:14;;;;;;;;;;;;;;;10.16;81.18;101185.47;5011511;28;19916;-82
2022/01/03 00:48:39;;;;;;;;;;;;;;;10.14;81.33;101188.03;5010716;28;19910;-84
2022/01/03 00:51:04;;;;;;;;;;;;;;;10.16;81.21;101175.94;5013930;28;20008;-84
2022/01/03 00:53:30;;;;;;;;;;;;;;;10.17;80.95;101188.13;5015974;28;19928;-84
2022/01/03 00:56:03;;;;;;;;;;;;;;;10.16;81.07;101183.75;5009164;28;19916;-84
2022/01/03 00:58:36;;;;;;;;;;;;;;;10.17;81.22;101184.66;5020278;28;19980;-84
2022/01/03 01:01:03;;;;;;;;;;;;;;;10.19;80.30;101189.03;5019528;28;20132;-84
2022/01/03 01:03:33;;;;;;;;;;;;;;;10.17;80.97;101193.31;5012935;28;19940;-84
2022/01/03 01:06:01;;;;;;;;;;;;;;;10.18;80.59;101184.69;5018927;28;19916;-85
2022/01/03 01:08:27;;;;;;;;;;;;;;;10.22;80.29;101183.03;5010111;28;20204;-83
2022/01/03 01:10:55;;;;;;;;;;;;;;;10.20;80.36;101183.00;5011705;28;19940;-84
2022/01/03 01:13:21;;;;;;;;;;;;;;;10.21;80.37;101184.78;5015470;28;19910;-83
2022/01/03 01:15:46;;;;;;;;;;;;;;;10.22;80.35;101180.44;5010790;28;20162;-83
2022/01/03 01:18:11;;;;;;;;;;;;;;;10.20;80.41;101198.63;5016582;28;19909;-83
2022/01/03 01:20:39;;;;;;;;;;;;;;;10.22;79.79;101186.53;5014385;28;19917;-84
2022/01/03 01:23:04;;;;;;;;;;;;;;;10.20;80.36;101197.75;5012537;28;19926;-84
2022/01/03 01:28:02;;;;;;;;;;;;;;;10.19;80.52;101190.78;5019494;28;19925;-83
2022/01/03 01:30:28;;;;;;;;;;;;;;;10.23;79.84;101205.66;5026154;28;19913;-84
2022/01/03 01:33:08;;;;;;;;;;;;;;;10.20;80.05;101206.44;5014083;28;19917;-84
2022/01/03 01:35:48;;;;;;;;;;;;;;;10.19;80.17;101216.81;5032374;28;19988;-84
2022/01/03 01:38:15;;;;;;;;;;;;;;;10.18;80.62;101220.25;5013641;28;19920;-83
2022/01/03 01:40:45;;;;;;;;;;;;;;;10.18;80.38;101241.97;5020338;28;19909;-84
2022/01/03 01:43:12;;;;;;;;;;;;;;;10.19;80.32;101237.66;5034866;28;20171;-84
2022/01/03 01:45:40;;;;;;;;;;;;;;;10.16;80.39;101233.22;5044175;28;19909;-84
2022/01/03 01:48:07;;;;;;;;;;;;;;;10.16;80.62;101232.34;5023024;28;19980;-84
2022/01/03 01:50:34;;;;;;;;;;;;;;;10.13;80.79;101217.50;5007378;28;20172;-84
2022/01/03 01:53:04;;;;;;;;;;;;;;;10.14;80.30;101224.47;5019692;28;19916;-84
2022/01/03 01:55:30;;;;;;;;;;;;;;;10.11;80.63;101221.78;5025090;28;19933;-83
2022/01/03 01:57:55;;;;;;;;;;;;;;;10.09;80.81;101220.84;5022321;28;19917;-82
2022/01/03 02:00:21;;;;;;;;;;;;;;;10.06;80.84;101215.53;5019772;28;20177;-84
2022/01/03 02:02:54;;;;;;;;;;;;;;;10.04;80.79;101215.50;5013677;28;20056;-84
2022/01/03 02:05:26;;;;;;;;;;;;;;;10.03;80.41;101223.25;5014902;28;20024;-85
2022/01/03 02:08:01;;;;;;;;;;;;;;;9.99;81.00;101226.59;5020699;28;20159;-83
2022/01/03 02:10:29;;;;;;;;;;;;;;;9.95;81.05;101228.22;5020762;28;19916;-83
2022/01/03 02:12:56;;;;;;;;;;;;;;;9.91;80.91;101224.63;5023288;28;20111;-83
2022/01/03 02:15:22;;;;;;;;;;;;;;;9.91;80.80;101222.03;5012090;28;19945;-84
2022/01/03 02:17:47;;;;;;;;;;;;;;;9.87;81.12;101224.47;5010310;28;19925;-82
2022/01/03 02:20:13;;;;;;;;;;;;;;;9.85;81.05;101220.97;5018231;28;19936;-83
2022/01/03 02:22:39;;;;;;;;;;;;;;;9.82;81.30;101224.34;5013903;28;19909;-83
2022/01/03 02:25:07;;;;;;;;;;;;;;;9.80;81.09;101225.13;5018213;28;19948;-84
2022/01/03 02:27:33;;;;;;;;;;;;;;;9.80;80.98;101217.31;5017747;28;19909;-84
2022/01/03 02:29:58;;;;;;;;;;;;;;;9.77;81.06;101220.69;5012386;28;20052;-84
2022/01/03 02:32:24;;;;;;;;;;;;;;;9.75;81.17;101230.16;5022501;28;19995;-84
2022/01/03 02:34:49;;;;;;;;;;;;;;;9.74;81.42;101221.47;5021268;28;19913;-83
2022/01/03 02:37:15;;;;;;;;;;;;;;;9.70;81.31;101229.13;5022271;28;19932;-84
2022/01/03 02:39:40;;;;;;;;;;;;;;;9.67;81.70;101221.22;5017791;28;19925;-84
2022/01/03 02:42:06;;;;;;;;;;;;;;;9.66;81.63;101227.25;5010303;28;19914;-83
2022/01/03 02:44:31;;;;;;;;;;;;;;;9.64;81.77;101234.13;5016339;28;19918;-83
2022/01/03 02:46:56;;;;;;;;;;;;;;;9.62;81.92;101233.22;5015039;28;20098;-82
2022/01/03 02:49:21;;;;;;;;;;;;;;;9.64;81.78;101228.91;5019463;28;19927;-83
2022/01/03 02:51:46;;;;;;;;;;;;;;;9.64;82.00;101231.53;5022196;28;19913;-83
2022/01/03 02:54:13;;;;;;;;;;;;;;;9.63;81.75;101225.44;5017949;28;19925;-83
2022/01/03 02:56:41;;;;;;;;;;;;;;;9.63;81.78;101224.53;5018190;28;20317;-83
2022/01/03 02:59:13;;;;;;;;;;;;;;;9.64;81.85;101224.59;5016498;28;20071;-84
2022/01/03 03:01:42;;;;;;;;;;;;;;;9.65;81.74;101235.91;5016476;28;19921;-84
2022/01/03 03:04:07;;;;;;;;;;;;;;;9.65;81.72;101230.69;5024037;28;20101;-84
2022/01/03 03:06:32;;;;;;;;;;;;;;;9.64;81.73;101231.53;5012365;28;19929;-83
2022/01/03 03:08:58;;;;;;;;;;;;;;;9.61;81.99;101234.91;5008646;28;19909;-83
2022/01/03 03:11:23;;;;;;;;;;;;;;;9.59;81.92;101231.38;5013134;28;19909;-84
2022/01/03 03:13:49;;;;;;;;;;;;;;;9.59;81.80;101231.38;5012765;28;20052;-83
2022/01/03 03:16:14;;;;;;;;;;;;;;;9.58;81.77;101233.06;5014270;28;19976;-84
2022/01/03 03:18:42;;;;;;;;;;;;;;;9.55;82.19;101230.38;5015161;28;20059;-83
2022/01/03 03:21:08;;;;;;;;;;;;;;;9.62;81.84;101233.22;5009148;28;19933;-83
2022/01/03 03:23:33;;;;;;;;;;;;;;;9.55;82.09;101235.56;5014835;28;20228;-83
2022/01/03 03:25:58;;;;;;;;;;;;;;;9.57;82.00;101236.53;5006302;28;20253;-83
2022/01/03 03:28:25;;;;;;;;;;;;;;;9.56;81.88;101233.88;5007263;28;19933;-84
2022/01/03 03:30:50;;;;;;;;;;;;;;;9.56;82.07;101236.47;5017567;28;19940;-83
2022/01/03 03:33:16;;;;;;;;;;;;;;;9.61;81.70;101234.03;5004271;28;19917;-85
2022/01/03 03:35:42;;;;;;;;;;;;;;;9.60;81.98;101232.25;5020432;28;20156;-83
2022/01/03 03:38:08;;;;;;;;;;;;;;;9.60;81.97;101234.84;5007681;28;19957;-83
2022/01/03 03:40:33;;;;;;;;;;;;;;;9.58;82.19;101246.09;5020411;28;19982;-83
2022/01/03 03:42:59;;;;;;;;;;;;;;;9.58;82.15;101242.59;5020462;28;20150;-83
2022/01/03 03:45:25;;;;;;;;;;;;;;;9.58;82.20;101232.19;5017748;28;19922;-83
2022/01/03 03:47:51;;;;;;;;;;;;;;;9.60;82.45;101229.66;5017758;28;19920;-84
2022/01/03 03:50:16;;;;;;;;;;;;;;;9.62;82.44;101222.81;5017457;28;19916;-83
2022/01/03 03:52:43;;;;;;;;;;;;;;;9.61;82.24;101227.09;5018184;28;19909;-84
2022/01/03 03:55:08;;;;;;;;;;;;;;;9.62;82.55;101226.28;5013156;28;20140;-83
2022/01/03 03:57:33;;;;;;;;;;;;;;;9.62;82.31;101231.47;5011919;28;19917;-83
2022/01/03 03:59:59;;;;;;;;;;;;;;;9.62;82.29;101218.47;5014848;28;19910;-84
2022/01/03 04:02:24;;;;;;;;;;;;;;;9.60;82.58;101219.25;5016539;28;21365;-84
2022/01/03 04:04:49;;;;;;;;;;;;;;;9.59;82.39;101226.19;5014122;28;19948;-82
2022/01/03 04:07:14;;;;;;;;;;;;;;;9.56;82.65;101216.53;5013876;28;19909;-84
2022/01/03 04:09:40;;;;;;;;;;;;;;;9.55;82.92;101222.56;5012876;28;19909;-83
2022/01/03 04:12:05;;;;;;;;;;;;;;;9.57;82.41;101215.72;5016963;28;19910;-83
2022/01/03 04:14:30;;;;;;;;;;;;;;;9.58;82.50;101227.88;5020685;28;20115;-83
2022/01/03 04:16:56;;;;;;;;;;;;;;;9.58;82.51;101216.59;5012383;28;20160;-84
2022/01/03 04:19:21;;;;;;;;;;;;;;;9.57;82.86;101210.50;5020047;28;20157;-84
2022/01/03 04:21:46;;;;;;;;;;;;;;;9.58;82.63;101206.19;5013552;28;19915;-84
2022/01/03 04:24:11;;;;;;;;;;;;;;;9.58;82.59;101207.06;5006702;28;19932;-84
2022/01/03 04:26:37;;;;;;;;;;;;;;;9.60;82.46;101214.91;5013469;28;19917;-84
2022/01/03 04:29:03;;;;;;;;;;;;;;;9.60;82.50;101201.03;5014860;28;19909;-84
2022/01/03 04:31:29;;;;;;;;;;;;;;;9.62;82.59;101197.66;5021303;28;19913;-84
2022/01/03 04:33:54;;;;;;;;;;;;;;;9.61;82.48;101195.00;5021333;28;20001;-84
2022/01/03 04:36:19;;;;;;;;;;;;;;;9.60;82.70;101198.44;5022111;28;20008;-83
2022/01/03 04:38:44;;;;;;;;;;;;;;;9.60;82.65;101194.09;5013511;28;19940;-83
2022/01/03 04:41:11;;;;;;;;;;;;;;;9.63;82.45;101201.13;5015760;28;20039;-84
2022/01/03 04:43:36;;;;;;;;;;;;;;;9.69;82.14;101198.72;5013562;28;19909;-83
2022/01/03 04:46:01;;;;;;;;;;;;;;;9.65;82.58;101202.97;5013078;28;20097;-83
2022/01/03 04:48:27;;;;;;;;;;;;;;;9.66;82.49;101202.13;5007579;28;20156;-83
2022/01/03 04:50:52;;;;;;;;;;;;;;;9.66;82.71;101196.03;5012861;28;19916;-84
2022/01/03 04:53:17;;;;;;;;;;;;;;;9.71;82.22;101197.06;5017181;28;19917;-84
2022/01/03 04:55:42;;;;;;;;;;;;;;;9.68;82.35;101195.25;5011092;28;19943;-84
2022/01/03 04:58:10;;;;;;;;;;;;;;;9.69;82.43;101193.50;5012347;28;20099;-83
2022/01/03 05:00:36;;;;;;;;;;;;;;;9.68;82.67;101192.66;5011288;28;19981;-84
2022/01/03 05:03:01;;;;;;;;;;;;;;;9.69;82.66;101198.72;5007980;28;19910;-83
2022/01/03 05:05:26;;;;;;;;;;;;;;;9.67;82.48;101193.47;5019187;28;20089;-84
2022/01/03 05:07:51;;;;;;;;;;;;;;;9.67;82.55;101187.38;5018967;28;19909;-83
2022/01/03 05:10:16;;;;;;;;;;;;;;;9.69;82.59;101203.94;5013641;28;20178;-82
2022/01/03 05:12:42;;;;;;;;;;;;;;;9.68;82.56;101196.97;5011941;28;19952;-84
2022/01/03 05:15:07;;;;;;;;;;;;;;;9.69;82.76;101184.00;5007923;28;19914;-84
2022/01/03 05:17:32;;;;;;;;;;;;;;;9.69;82.61;101185.72;5010148;28;20056;-84
2022/01/03 05:19:58;;;;;;;;;;;;;;;9.71;82.62;101178.84;5015042;28;20138;-84
2022/01/03 05:22:23;;;;;;;;;;;;;;;9.69;82.61;101172.69;5019154;28;20068;-84
2022/01/03 05:24:49;;;;;;;;;;;;;;;9.68;82.71;101176.16;5021998;28;19910;-84
2022/01/03 05:27:14;;;;;;;;;;;;;;;9.67;82.67;101169.19;5021118;28;19916;-83
2022/01/03 05:29:39;;;;;;;;;;;;;;;9.65;82.96;101176.94;5021456;28;19952;-84
2022/01/03 05:32:04;;;;;;;;;;;;;;;9.64;82.95;101171.69;5020924;28;19964;-83
2022/01/03 05:34:29;;;;;;;;;;;;;;;9.66;83.00;101185.63;5020310;28;19949;-83
2022/01/03 05:36:55;;;;;;;;;;;;;;;9.66;83.01;101167.41;5021110;28;19917;-84
2022/01/03 05:39:20;;;;;;;;;;;;;;;9.65;82.87;101168.25;5016803;28;19917;-84
2022/01/03 05:41:45;;;;;;;;;;;;;;;9.65;83.01;101168.25;5018360;28;19910;-84
2022/01/03 05:44:10;;;;;;;;;;;;;;;9.68;82.63;101165.75;5007452;28;20166;-84
2022/01/03 05:46:36;;;;;;;;;;;;;;;9.69;82.50;101165.81;5010393;28;19909;-84
2022/01/03 05:49:01;;;;;;;;;;;;;;;9.69;82.39;101168.41;5007898;28;19910;-83
2022/01/03 05:51:26;;;;;;;;;;;;;;;9.68;82.25;101161.41;5019111;28;19956;-84
2022/01/03 05:53:53;;;;;;;;;;;;;;;9.67;82.29;101159.63;5033733;28;19932;-84
2022/01/03 05:56:18;;;;;;;;;;;;;;;9.67;82.70;101158.78;5009949;28;19918;-83
2022/01/03 05:58:43;;;;;;;;;;;;;;;9.67;82.62;101158.78;5013855;28;19917;-84
2022/01/03 06:01:08;;;;;;;;;;;;;;;9.67;82.76;101163.97;5018448;28;19917;-84
2022/01/03 06:03:38;;;;;;;;;;;;;;;9.67;82.72;101156.16;5014697;28;19916;-84
2022/01/03 06:06:16;;;;;;;;;;;;;;;9.65;82.82;101156.13;5009829;28;19956;-84
2022/01/03 06:08:42;;;;;;;;;;;;;;;9.66;82.60;101152.69;5010661;28;19926;-84
2022/01/03 06:11:07;;;;;;;;;;;;;;;9.65;82.89;101152.66;5017078;28;20316;-84
2022/01/03 06:13:32;;;;;;;;;;;;;;;9.65;82.51;101153.53;5006935;28;19914;-84
2022/01/03 06:15:57;;;;;;;;;;;;;;;9.65;82.79;101153.53;5012848;28;20166;-83
2022/01/03 06:18:23;;;;;;;;;;;;;;;9.64;82.84;101143.94;5017293;28;20100;-83
2022/01/03 06:20:49;;;;;;;;;;;;;;;9.64;82.79;101149.13;5012854;28;19916;-83
2022/01/03 06:23:15;;;;;;;;;;;;;;;9.64;83.01;101153.47;5009013;28;19909;-84
2022/01/03 06:25:40;;;;;;;;;;;;;;;9.64;82.81;101148.28;5044041;28;19917;-83
2022/01/03 06:28:07;;;;;;;;;;;;;;;9.60;82.93;101159.41;5018844;28;19955;-84
2022/01/03 06:30:36;;;;;;;;;;;;;;;9.58;82.84;101155.03;5015455;28;20060;-84
2022/01/03 06:33:02;;;;;;;;;;;;;;;9.53;83.25;101146.22;5017926;28;19909;-84
2022/01/03 06:35:28;;;;;;;;;;;;;;;9.52;83.32;101146.16;5027383;28;20354;-84
2022/01/03 06:37:53;;;;;;;;;;;;;;;9.49;83.35;101139.13;5014590;28;20099;-84
2022/01/03 06:40:18;;;;;;;;;;;;;;;9.48;83.19;101147.75;5013277;28;19909;-83
2022/01/03 06:42:43;;;;;;;;;;;;;;;9.46;83.28;101146.84;5009763;28;19916;-83
2022/01/03 06:45:09;;;;;;;;;;;;;;;9.47;83.44;101152.91;5010733;28;19914;-84
2022/01/03 06:47:34;;;;;;;;;;;;;;;9.46;83.53;101149.44;5010639;28;19914;-85
2022/01/03 06:49:59;;;;;;;;;;;;;;;9.45;83.74;101152.00;5021635;28;20060;-84
2022/01/03 06:52:25;;;;;;;;;;;;;;;9.45;83.80;101146.78;5006280;28;19910;-84
2022/01/03 06:54:50;;;;;;;;;;;;;;;9.43;84.06;101141.53;5011296;28;19933;-84
2022/01/03 06:57:15;;;;;;;;;;;;;;;9.41;84.17;101151.00;5014078;28;20124;-83
2022/01/03 06:59:40;;;;;;;;;;;;;;;9.38;84.16;101146.59;5014252;28;19936;-84
2022/01/03 07:02:06;;;;;;;;;;;;;;;9.37;84.42;101143.91;5017979;28;20148;-84
2022/01/03 07:04:31;;;;;;;;;;;;;;;9.37;84.21;101146.50;5018634;28;19940;-84
2022/01/03 07:06:56;;;;;;;;;;;;;;;9.35;84.70;101145.59;5015111;28;19956;-84
2022/01/03 07:09:22;;;;;;;;;;;;;;;9.34;84.55;101139.53;5018441;28;20291;-84
2022/01/03 07:11:47;;;;;;;;;;;;;;;9.33;84.98;101136.88;5021416;28;19921;-84
2022/01/03 07:19:42;;;;;;;;;;;;;;;9.27;84.98;101126.25;5017105;28;20016;-84
2022/01/03 07:22:08;;;;;;;;;;;;;;;9.26;85.12;101130.56;5021393;28;19917;-84
2022/01/03 07:24:35;;;;;;;;;;;;;;;9.26;85.14;101134.91;5022561;28;19927;-84
2022/01/03 07:27:01;;;;;;;;;;;;;;;9.23;85.24;101133.94;5023418;28;19952;-85
2022/01/03 07:29:26;;;;;;;;;;;;;;;9.24;85.07;101132.25;5022710;28;19917;-83
2022/01/03 07:31:51;;;;;;;;;;;;;;;9.23;85.00;101131.34;5023396;28;19917;-83
2022/01/03 07:34:16;;;;;;;;;;;;;;;9.23;85.26;101130.47;5018440;28;19992;-85
2022/01/03 07:36:41;;;;;;;;;;;;;;;9.20;85.39;101128.66;5011980;28;19972;-84
2022/01/03 07:39:07;;;;;;;;;;;;;;;9.20;85.16;101125.16;5018230;28;20094;-84
2022/01/03 07:41:32;;;;;;;;;;;;;;;9.18;85.30;101129.41;5022589;28;19929;-84
2022/01/03 07:43:57;;;;;;;;;;;;;;;9.20;85.57;101133.84;5020548;28;19940;-84
2022/01/03 07:46:22;;;;;;;;;;;;;;;9.16;85.39;101128.50;5019251;28;19949;-84
2022/01/03 07:48:48;;;;;;;;;;;;;;;9.16;85.33;101133.69;5018719;28;19952;-85
2022/01/03 07:51:13;;;;;;;;;;;;;;;9.15;85.40;101131.91;5017142;28;19917;-84
2022/01/03 07:53:38;;;;;;;;;;;;;;;9.13;85.41;101139.66;5021094;28;20160;-84
2022/01/03 07:56:05;;;;;;;;;;;;;;;9.14;85.41;101153.53;5022710;28;19909;-84
2022/01/03 07:58:30;;;;;;;;;;;;;;;9.15;85.34;101148.41;5019563;28;19909;-84
2022/01/03 08:00:55;;;;;;;;;;;;;;;9.16;85.38;101170.97;5016987;28;19959;-84
2022/01/03 08:03:20;;;;;;;;;;;;;;;9.20;85.26;101161.56;5021102;28;20156;-84
2022/01/03 08:05:46;;;;;;;;;;;;;;;9.20;85.17;101152.03;5016520;28;20056;-84
2022/01/03 08:08:12;;;;;;;;;;;;;;;9.25;85.40;101148.72;5020937;28;19962;-84
2022/01/03 08:10:38;;;;;;;;;;;;;;;9.25;85.33;101156.53;5022235;28;19909;-83
2022/01/03 08:13:03;;;;;;;;;;;;;;;9.26;85.31;101140.97;5023426;28;19905;-84
2022/01/03 08:15:29;;;;;;;;;;;;;;;9.28;85.39;101159.22;5021999;28;19988;-82
2022/01/03 08:17:54;;;;;;;;;;;;;;;9.29;85.18;101154.06;5021157;28;19955;-84
2022/01/03 08:20:20;;;;;;;;;;;;;;;9.30;85.25;101154.94;5022309;28;20256;-84
2022/01/03 08:22:45;;;;;;;;;;;;;;;9.30;85.04;101144.53;5022990;28;19973;-84
2022/01/03 08:25:11;;;;;;;;;;;;;;;9.31;85.23;101149.81;5022809;28;19932;-83
2022/01/03 08:27:36;;;;;;;;;;;;;;;9.30;85.13;101148.03;5018289;28;19928;-82
2022/01/03 08:30:02;;;;;;;;;;;;;;;9.32;85.11;101142.91;5021255;28;20140;-83
2022/01/03 08:32:27;;;;;;;;;;;;;;;9.32;85.18;101142.91;5014066;28;19989;-84
2022/01/03 08:34:53;;;;;;;;;;;;;;;9.34;85.02;101146.41;5020654;28;20152;-84
2022/01/03 08:37:18;;;;;;;;;;;;;;;9.36;84.95;101134.38;5021856;28;20137;-84
2022/01/03 08:39:43;;;;;;;;;;;;;;;9.36;84.96;101137.84;5022907;28;19916;-85
2022/01/03 08:42:08;;;;;;;;;;;;;;;9.40;84.92;101133.66;5015245;28;19989;-85
2022/01/03 08:44:33;;;;;;;;;;;;;;;9.39;85.08;101137.94;5014005;28;19910;-84
2022/01/03 08:46:59;;;;;;;;;;;;;;;9.40;85.02;101126.72;5011769;28;19968;-84
2022/01/03 08:49:24;;;;;;;;;;;;;;;9.41;84.94;101130.19;5013069;28;19909;-84
2022/01/03 08:51:49;;;;;;;;;;;;;;;9.40;84.81;101138.84;5007481;28;19948;-84
2022/01/03 08:54:14;;;;;;;;;;;;;;;9.39;84.97;101147.47;5012233;28;19906;-84
2022/01/03 08:56:40;;;;;;;;;;;;;;;9.39;84.82;101144.88;5013420;28;20208;-84
2022/01/03 08:59:05;;;;;;;;;;;;;;;9.40;84.89;101147.50;5011362;28;19912;-83
2022/01/03 09:01:30;;;;;;;;;;;;;;;9.44;84.82;101161.50;5013679;28;19909;-84
2022/01/03 09:03:56;;;;;;;;;;;;;;;9.47;84.66;101161.63;5021019;28;20199;-83
2022/01/03 09:06:21;;;;;;;;;;;;;;;9.46;84.66;101156.34;5015403;28;20086;-84
2022/01/03 09:08:47;;;;;;;;;;;;;;;9.47;84.81;101156.41;5021096;28;19947;-84
2022/01/03 09:11:12;;;;;;;;;;;;;;;9.48;84.79;101158.16;5021818;28;19909;-83
2022/01/03 09:13:37;;;;;;;;;;;;;;;9.52;85.07;101154.84;5020431;28;19921;-83
2022/01/03 09:16:07;;;;;;;;;;;;;;;9.60;84.59;101156.81;5021652;28;19909;-83
2022/01/03 09:18:33;;;;;;;;;;;;;;;9.67;84.62;101166.56;5021686;28;19905;-83
2022/01/03 09:20:59;;;;;;;;;;;;;;;9.74;84.11;101155.53;5017820;28;19933;-84
2022/01/03 09:23:28;;;;;;;;;;;;;;;9.76;84.01;101151.25;5020006;28;19909;-84
2022/01/03 09:28:49;;;;;;;;;;;;;;;9.81;83.61;101148.81;5020579;28;19989;-67
2022/01/03 09:31:15;;;;;;;;;;;;;;;9.77;83.89;101153.03;5020644;28;19909;-67
2022/01/03 09:33:40;;;;;;;;;;;;;;;9.78;83.89;101141.78;5020781;28;19921;-67
2022/01/03 09:36:06;;;;;;;;;;;;;;;9.77;83.88;101131.34;5021135;28;20159;-67
2022/01/03 09:38:31;;;;;;;;;;;;;;;9.78;83.96;101113.16;5021575;28;20144;-67
2022/01/03 09:41:00;;;;;;;;;;;;;;;9.80;83.59;101119.28;5022270;28;19932;-67
2022/01/03 09:43:27;;;;;;;;;;;;;;;9.79;83.74;101119.25;5035402;28;19914;-67
2022/01/03 09:45:53;;;;;;;;;;;;;;;9.78;83.76;101112.28;5022088;28;20032;-67
2022/01/03 09:48:21;;;;;;;;;;;;;;;9.78;83.87;101120.97;5019820;28;19933;-67
2022/01/03 09:50:46;;;;;;;;;;;;;;;9.80;83.89;101127.09;5023163;28;19913;-67
2022/01/03 09:53:12;;;;;;;;;;;;;;;9.83;83.74;101129.78;5023674;28;20028;-67
2022/01/03 09:55:39;;;;;;;;;;;;;;;9.87;83.67;101125.56;5025997;28;19910;-67
2022/01/03 09:58:04;;;;;;;;;;;;;;;9.92;83.38;101127.50;5026455;28;19956;-67
2022/01/03 10:00:29;;;;;;;;;;;;;;;9.92;83.44;101124.88;5026093;28;19910;-67
2022/01/03 10:02:55;;;;;;;;;;;;;;;9.96;83.08;101122.38;5014563;28;19933;-67
2022/01/03 10:05:20;;;;;;;;;;;;;;;9.95;83.72;101120.59;5017100;28;19917;-67
2022/01/03 10:07:45;;;;;;;;;;;;;;;9.96;83.44;101119.78;5024854;28;19960;-67
2022/01/03 10:10:11;;;;;;;;;;;;;;;9.97;83.47;101122.41;5025839;28;19979;-67
2022/01/03 10:12:37;;;;;;;;;;;;;;;9.98;83.50;101112.88;5025300;28;20068;-67
2022/01/03 10:15:06;;;;;;;;;;;;;;;9.97;83.70;101116.34;5015505;28;19931;-67
2022/01/03 10:17:36;;;;;;;;;;;;;;;9.97;83.70;101114.59;5025102;28;19916;-67
2022/01/03 10:20:02;;;;;;;;;;;;;;;9.98;83.75;101113.78;5025586;28;19984;-67
2022/01/03 10:22:29;;;;;;;;;;;;;;;10.02;83.30;101114.75;5026071;28;19905;-67
2022/01/03 10:24:55;;;;;;;;;;;;;;;10.04;83.39;101131.31;5022057;28;19916;-67
2022/01/03 10:27:22;;;;;;;;;;;;;;;10.04;83.62;101126.97;5024720;28;20123;-67
2022/01/03 10:29:54;;;;;;;;;;;;;;;10.07;83.43;101120.97;5024825;28;19916;-67
2022/01/03 10:32:27;;;;;;;;;;;;;;;10.08;83.56;101114.94;5020935;28;19905;-67
2022/01/03 10:34:53;;;;;;;;;;;;;;;10.09;83.38;101107.19;5024699;28;19984;-67
2022/01/03 10:37:18;;;;;;;;;;;;;;;10.08;83.60;101108.00;5018629;28;20076;-67
2022/01/03 10:39:44;;;;;;;;;;;;;;;10.07;83.61;101107.97;5021157;28;19910;-67
2022/01/03 10:42:12;;;;;;;;;;;;;;;10.07;83.73;101105.38;5025300;28;20137;-67
2022/01/03 10:44:40;;;;;;;;;;;;;;;10.06;83.35;101096.66;5025370;28;19924;-67
2022/01/03 10:47:08;;;;;;;;;;;;;;;10.07;83.48;101097.56;5020455;28;19917;-67
2022/01/03 10:49:33;;;;;;;;;;;;;;;10.09;83.56;101095.88;5019689;28;19948;-67
2022/01/03 10:52:10;;;;;;;;;;;;;;;10.12;83.25;101095.94;5025723;28;19922;-67
2022/01/03 10:54:36;;;;;;;;;;;;;;;10.14;83.34;101082.97;5024555;28;19917;-78
2022/01/03 10:57:01;;;;;;;;;;;;;;;10.14;83.01;101080.38;5024266;28;19917;-78
2022/01/03 10:59:30;;;;;;;;;;;;;;;10.16;83.07;101076.09;5024153;28;19940;-78
2022/01/03 11:01:59;;;;;;;;;;;;;;;10.16;83.03;101066.56;5023930;28;19952;-78
2022/01/03 11:04:39;;;;;;;;;;;;;;;10.19;83.11;101064.03;5018820;28;19914;-79
2022/01/03 11:13:10;;;;;;;;;;;;;;;10.20;82.57;101047.59;5024308;28;20102;-78
2022/01/03 11:15:37;;;;;;;;;;;;;;;10.23;82.52;101046.81;5024866;28;19910;-78
2022/01/03 11:18:09;;;;;;;;;;;;;;;10.26;82.78;101055.56;5023232;28;19909;-79
2022/01/03 11:20:35;;;;;;;;;;;;;;;10.30;82.63;101053.03;5040325;28;19917;-78
2022/01/03 11:23:00;;;;;;;;;;;;;;;10.31;82.54;101044.41;5024857;28;19917;-78
2022/01/03 11:25:29;;;;;;;;;;;;;;;10.36;82.04;101048.06;5014614;28;19913;-78
2022/01/03 11:27:54;;;;;;;;;;;;;;;10.34;82.52;101037.59;5020914;28;19909;-78
2022/01/03 11:30:20;;;;;;;;;;;;;;;10.34;82.34;101047.13;5024297;28;19952;-79
2022/01/03 11:32:48;;;;;;;;;;;;;;;10.36;82.28;101050.66;5023580;28;20064;-78
2022/01/03 11:35:14;;;;;;;;;;;;;;;10.34;82.37;101042.81;5023905;28;19909;-78
2022/01/03 11:37:40;;;;;;;;;;;;;;;10.36;82.28;101037.66;5023647;28;19925;-78
2022/01/03 11:40:07;;;;;;;;;;;;;;;10.35;82.29;101043.69;5024342;28;19905;-80
2022/01/03 11:42:32;;;;;;;;;;;;;;;10.36;82.19;101035.03;5023979;28;20044;-81
2022/01/03 11:44:58;;;;;;;;;;;;;;;10.33;82.23;101022.78;5024297;28;19944;-78
2022/01/03 11:47:24;;;;;;;;;;;;;;;10.32;82.53;101030.53;5023914;28;19921;-78
2022/01/03 11:49:51;;;;;;;;;;;;;;;10.33;81.85;101019.28;5023995;28;19917;-78
2022/01/03 11:52:16;;;;;;;;;;;;;;;10.30;81.98;101013.97;5023371;28;20044;-78
2022/01/03 11:54:42;;;;;;;;;;;;;;;10.29;81.69;101001.81;5023591;28;19913;-78
2022/01/03 11:57:10;;;;;;;;;;;;;;;10.27;82.00;101004.38;5023918;28;19951;-78
2022/01/03 12:05:08;;;;;;;;;;;;;;;10.22;82.28;100998.16;5023188;28;19932;-78
2022/01/03 12:07:33;;;;;;;;;;;;;;;10.21;82.32;100997.28;5017140;28;20098;-78
2022/01/03 12:10:09;;;;;;;;;;;;;;;10.19;82.68;100991.13;5022979;28;19909;-78
2022/01/03 12:12:35;;;;;;;;;;;;;;;10.19;82.53;100985.06;5023797;28;20027;-78
2022/01/03 12:15:03;;;;;;;;;;;;;;;10.19;82.75;100978.09;5018039;28;19951;-78
2022/01/03 12:17:41;;;;;;;;;;;;;;;10.20;82.63;100984.22;5020938;28;19909;-79
2022/01/03 12:20:07;;;;;;;;;;;;;;;10.21;82.72;100986.88;5022274;28;19909;-78
2022/01/03 12:22:46;;;;;;;;;;;;;;;10.20;82.81;100968.59;5021392;28;19937;-78
2022/01/03 12:25:23;;;;;;;;;;;;;;;10.22;82.52;100970.38;5012345;28;19909;-79
2022/01/03 12:27:53;;;;;;;;;;;;;;;10.22;82.67;100972.97;5023542;28;20158;-78
2022/01/03 12:30:20;;;;;;;;;;;;;;;10.24;82.66;100973.06;5022487;28;19937;-78
2022/01/03 12:33:09;;;;;;;;;;;;;;;10.27;82.06;100967.91;5018808;28;19933;-78
2022/01/03 12:35:38;;;;;;;;;;;;;;;10.25;82.16;100962.69;5007716;28;19932;-78
2022/01/03 12:38:03;;;;;;;;;;;;;;;10.26;82.06;100954.00;5013973;28;20162;-78
2022/01/03 12:40:33;;;;;;;;;;;;;;;10.26;82.08;100935.78;5017612;28;19937;-79
2022/01/03 12:43:01;;;;;;;;;;;;;;;10.23;82.33;100935.69;5011956;28;19981;-78
2022/01/03 12:45:29;;;;;;;;;;;;;;;10.23;82.19;100943.50;5021223;28;20096;-78
2022/01/03 12:48:09;;;;;;;;;;;;;;;10.23;82.05;100932.22;5020127;28;19929;-78
2022/01/03 12:50:36;;;;;;;;;;;;;;;10.23;81.89;100925.28;5021641;28;19944;-67
2022/01/03 12:53:02;;;;;;;;;;;;;;;10.21;82.13;100926.97;5019786;28;19910;-67
2022/01/03 12:55:36;;;;;;;;;;;;;;;10.23;82.08;100922.66;5022622;28;19910;-67
2022/01/03 12:58:02;;;;;;;;;;;;;;;10.23;81.68;100917.47;5022899;28;20239;-67
2022/01/03 13:00:47;;;;;;;;;;;;;;;10.23;81.98;100914.00;5022655;28;19932;-67
2022/01/03 13:03:25;;;;;;;;;;;;;;;10.23;82.25;100920.06;5022701;28;19916;-68